createdAt,value
2016-10-29T00:00:58.836Z,1021.66
2016-10-29T00:01:58.794Z,1021.6
2016-10-29T00:02:58.911Z,1021.65
2016-10-29T00:03:59.061Z,1021.66
2016-10-29T00:04:58.845Z,1021.68
2016-10-29T00:05:58.779Z,1021.71
2016-10-29T00:06:58.870Z,1021.71
2016-10-29T00:07:58.847Z,1021.69
2016-10-29T00:08:58.687Z,1021.68
2016-10-29T00:09:58.931Z,1021.64
2016-10-29T00:10:58.851Z,1021.69
2016-10-29T00:11:58.937Z,1021.66
2016-10-29T00:12:58.971Z,1021.68
2016-10-29T00:13:59.035Z,1021.65
2016-10-29T00:14:58.923Z,1021.68
2016-10-29T00:15:59.387Z,1021.69
2016-10-29T00:16:59.097Z,1021.69
2016-10-29T00:17:59.091Z,1021.7
2016-10-29T00:18:58.971Z,1021.68
2016-10-29T00:19:59.408Z,1021.68
2016-10-29T00:20:59.049Z,1021.66
2016-10-29T00:21:58.940Z,1021.61
2016-10-29T00:22:59.682Z,1021.63
2016-10-29T00:23:59.199Z,1021.63
2016-10-29T00:24:59.099Z,1021.64
2016-10-29T00:25:59.033Z,1021.69
2016-10-29T00:26:58.996Z,1021.64
2016-10-29T00:27:59.506Z,1021.64
2016-10-29T00:28:59.085Z,1021.69
2016-10-29T00:29:59.403Z,1021.64
2016-10-29T00:30:59.359Z,1021.65
2016-10-29T00:31:59.174Z,1021.64
2016-10-29T00:32:59.305Z,1021.6
2016-10-29T00:33:59.209Z,1021.59
2016-10-29T00:34:59.507Z,1021.62
2016-10-29T00:35:59.237Z,1021.66
2016-10-29T00:36:59.707Z,1021.6
2016-10-29T00:37:59.452Z,1021.59
2016-10-29T00:38:59.304Z,1021.64
2016-10-29T00:39:59.561Z,1021.64
2016-10-29T00:40:59.587Z,1021.65
2016-10-29T00:41:59.236Z,1021.7
2016-10-29T00:42:59.414Z,1021.63
2016-10-29T00:43:59.459Z,1021.61
2016-10-29T00:44:59.796Z,1021.63
2016-10-29T00:45:59.673Z,1021.64
2016-10-29T00:46:59.877Z,1021.68
2016-10-29T00:47:59.686Z,1021.65
2016-10-29T00:48:59.837Z,1021.69
2016-10-29T00:49:59.760Z,1021.66
2016-10-29T00:50:59.704Z,1021.67
2016-10-29T00:51:59.592Z,1021.67
2016-10-29T00:52:59.892Z,1021.68
2016-10-29T00:53:59.789Z,1021.67
2016-10-29T00:54:59.694Z,1021.67
2016-10-29T00:55:59.682Z,1021.65
2016-10-29T00:56:59.745Z,1021.63
2016-10-29T00:57:59.897Z,1021.67
2016-10-29T00:58:59.820Z,1021.63
2016-10-29T00:59:59.730Z,1021.65
2016-10-29T01:00:59.719Z,1021.61
2016-10-29T01:01:59.710Z,1021.6
2016-10-29T01:03:00.066Z,1021.61
2016-10-29T01:03:59.774Z,1021.65
2016-10-29T01:04:59.686Z,1021.65
2016-10-29T01:05:59.872Z,1021.65
2016-10-29T01:06:59.789Z,1021.66
2016-10-29T01:07:59.884Z,1021.63
2016-10-29T01:08:59.868Z,1021.6
2016-10-29T01:09:59.826Z,1021.59
2016-10-29T01:10:59.889Z,1021.59
2016-10-29T01:11:59.954Z,1021.58
2016-10-29T01:13:00.058Z,1021.57
2016-10-29T01:14:00.080Z,1021.56
2016-10-29T01:15:00.003Z,1021.56
2016-10-29T01:16:00.018Z,1021.54
2016-10-29T01:16:59.888Z,1021.59
2016-10-29T01:17:59.983Z,1021.61
2016-10-29T01:19:00.278Z,1021.61
2016-10-29T01:19:59.982Z,1021.6
2016-10-29T01:21:00.299Z,1021.56
2016-10-29T01:22:00.020Z,1021.56
2016-10-29T01:23:00.366Z,1021.62
2016-10-29T01:23:59.980Z,1021.57
2016-10-29T01:25:00.274Z,1021.61
2016-10-29T01:25:59.983Z,1021.57
2016-10-29T01:27:00.234Z,1021.57
2016-10-29T01:28:00.691Z,1021.59
2016-10-29T01:29:00.356Z,1021.6
2016-10-29T01:30:00.423Z,1021.58
2016-10-29T01:31:00.987Z,1021.58
2016-10-29T01:32:00.463Z,1021.58
2016-10-29T01:33:00.392Z,1021.56
2016-10-29T01:34:00.327Z,1021.56
2016-10-29T01:35:00.580Z,1021.6
2016-10-29T01:36:00.326Z,1021.54
2016-10-29T01:37:00.333Z,1021.58
2016-10-29T01:38:00.292Z,1021.6
2016-10-29T01:39:00.553Z,1021.62
2016-10-29T01:40:00.438Z,1021.59
2016-10-29T01:41:00.469Z,1021.56
2016-10-29T01:42:00.469Z,1021.55
2016-10-29T01:43:00.877Z,1021.55
2016-10-29T01:44:00.664Z,1021.55
2016-10-29T01:45:00.535Z,1021.56
2016-10-29T01:46:00.443Z,1021.57
2016-10-29T01:47:00.413Z,1021.54
2016-10-29T01:48:00.602Z,1021.54
2016-10-29T01:49:00.642Z,1021.53
2016-10-29T01:50:00.478Z,1021.5
2016-10-29T01:51:00.604Z,1021.51
2016-10-29T01:52:00.538Z,1021.54
2016-10-29T01:53:00.947Z,1021.56
2016-10-29T01:54:00.644Z,1021.54
2016-10-29T01:55:00.629Z,1021.53
2016-10-29T01:56:00.673Z,1021.52
2016-10-29T01:57:00.904Z,1021.49
2016-10-29T01:58:01.446Z,1021.53
2016-10-29T01:59:01.205Z,1021.5
2016-10-29T02:00:00.884Z,1021.51
2016-10-29T02:01:00.682Z,1021.51
2016-10-29T02:02:00.776Z,1021.46
2016-10-29T02:03:00.773Z,1021.47
2016-10-29T02:04:01.064Z,1021.52
2016-10-29T02:05:00.822Z,1021.5
2016-10-29T02:06:01.002Z,1021.47
2016-10-29T02:07:01.036Z,1021.49
2016-10-29T02:08:00.957Z,1021.49
2016-10-29T02:09:00.815Z,1021.51
2016-10-29T02:10:00.896Z,1021.54
2016-10-29T02:11:00.920Z,1021.53
2016-10-29T02:12:00.950Z,1021.53
2016-10-29T02:13:01.177Z,1021.55
2016-10-29T02:14:00.904Z,1021.57
2016-10-29T02:15:00.987Z,1021.59
2016-10-29T02:16:00.931Z,1021.55
2016-10-29T02:17:00.897Z,1021.62
2016-10-29T02:18:01.041Z,1021.62
2016-10-29T02:19:01.083Z,1021.63
2016-10-29T02:20:01.019Z,1021.63
2016-10-29T02:21:01.008Z,1021.6
2016-10-29T02:22:00.967Z,1021.65
2016-10-29T02:23:01.002Z,1021.66
2016-10-29T02:24:01.042Z,1021.62
2016-10-29T02:25:01.314Z,1021.69
2016-10-29T02:26:01.180Z,1021.7
2016-10-29T02:27:01.122Z,1021.71
2016-10-29T02:28:01.326Z,1021.67
2016-10-29T02:29:01.388Z,1021.69
2016-10-29T02:30:01.310Z,1021.67
2016-10-29T02:31:01.282Z,1021.69
2016-10-29T02:32:01.316Z,1021.71
2016-10-29T02:33:01.527Z,1021.64
2016-10-29T02:34:01.370Z,1021.62
2016-10-29T02:35:01.464Z,1021.7
2016-10-29T02:36:01.279Z,1021.7
2016-10-29T02:37:01.453Z,1021.66
2016-10-29T02:38:02.101Z,1021.72
2016-10-29T02:39:01.412Z,1021.69
2016-10-29T02:40:01.330Z,1021.69
2016-10-29T02:41:01.527Z,1021.68
2016-10-29T02:42:01.462Z,1021.69
2016-10-29T02:43:01.538Z,1021.65
2016-10-29T02:44:01.404Z,1021.66
2016-10-29T02:45:01.613Z,1021.66
2016-10-29T02:46:01.696Z,1021.69
2016-10-29T02:47:01.414Z,1021.69
2016-10-29T02:48:01.517Z,1021.71
2016-10-29T02:49:01.570Z,1021.7
2016-10-29T02:50:01.586Z,1021.69
2016-10-29T02:51:01.567Z,1021.71
2016-10-29T02:52:01.650Z,1021.74
2016-10-29T02:53:01.502Z,1021.76
2016-10-29T02:54:01.571Z,1021.79
2016-10-29T02:55:01.611Z,1021.8
2016-10-29T02:56:01.607Z,1021.82
2016-10-29T02:57:01.708Z,1021.85
2016-10-29T02:58:01.836Z,1021.84
2016-10-29T02:59:01.897Z,1021.82
2016-10-29T03:00:01.727Z,1021.84
2016-10-29T03:01:01.838Z,1021.8
2016-10-29T03:02:01.791Z,1021.83
2016-10-29T03:03:01.999Z,1021.83
2016-10-29T03:04:01.783Z,1021.81
2016-10-29T03:05:01.666Z,1021.82
2016-10-29T03:06:01.786Z,1021.78
2016-10-29T03:07:01.808Z,1021.76
2016-10-29T03:08:02.391Z,1021.78
2016-10-29T03:09:02.466Z,1021.71
2016-10-29T03:10:02.465Z,1021.69
2016-10-29T03:11:01.989Z,1021.7
2016-10-29T03:12:01.732Z,1021.64
2016-10-29T03:13:01.941Z,1021.59
2016-10-29T03:14:01.983Z,1021.62
2016-10-29T03:15:02.047Z,1021.62
2016-10-29T03:16:02.230Z,1021.62
2016-10-29T03:17:02.011Z,1021.59
2016-10-29T03:18:02.470Z,1021.6
2016-10-29T03:19:02.127Z,1021.62
2016-10-29T03:20:02.412Z,1021.58
2016-10-29T03:21:02.043Z,1021.58
2016-10-29T03:22:01.955Z,1021.57
2016-10-29T03:23:02.095Z,1021.54
2016-10-29T03:24:02.074Z,1021.54
2016-10-29T03:25:02.097Z,1021.55
2016-10-29T03:26:02.231Z,1021.5
2016-10-29T03:27:02.354Z,1021.51
2016-10-29T03:28:02.334Z,1021.56
2016-10-29T03:29:02.217Z,1021.52
2016-10-29T03:30:02.086Z,1021.54
2016-10-29T03:31:02.239Z,1021.52
2016-10-29T03:32:02.219Z,1021.52
2016-10-29T03:33:02.372Z,1021.55
2016-10-29T03:34:02.251Z,1021.57
2016-10-29T03:35:02.226Z,1021.57
2016-10-29T03:36:02.085Z,1021.61
2016-10-29T03:37:02.273Z,1021.59
2016-10-29T03:38:02.256Z,1021.6
2016-10-29T03:39:02.604Z,1021.63
2016-10-29T03:40:02.488Z,1021.6
2016-10-29T03:41:02.207Z,1021.67
2016-10-29T03:42:02.493Z,1021.63
2016-10-29T03:43:02.464Z,1021.63
2016-10-29T03:44:02.326Z,1021.61
2016-10-29T03:45:02.591Z,1021.6
2016-10-29T03:46:02.523Z,1021.6
2016-10-29T03:47:02.611Z,1021.61
2016-10-29T03:48:02.575Z,1021.62
2016-10-29T03:49:02.813Z,1021.63
2016-10-29T03:50:02.707Z,1021.63
2016-10-29T03:51:02.671Z,1021.64
2016-10-29T03:52:02.876Z,1021.64
2016-10-29T03:53:02.458Z,1021.64
2016-10-29T03:54:02.478Z,1021.65
2016-10-29T03:55:02.465Z,1021.66
2016-10-29T03:56:03.018Z,1021.67
2016-10-29T03:57:03.199Z,1021.68
2016-10-29T03:58:02.483Z,1021.67
2016-10-29T03:59:02.636Z,1021.69
2016-10-29T04:00:02.574Z,1021.71
2016-10-29T04:01:02.626Z,1021.7
2016-10-29T04:02:02.625Z,1021.66
2016-10-29T04:03:02.723Z,1021.61
2016-10-29T04:04:02.776Z,1021.61
2016-10-29T04:05:02.761Z,1021.59
2016-10-29T04:06:02.894Z,1021.58
2016-10-29T04:07:02.768Z,1021.56
2016-10-29T04:08:02.737Z,1021.61
2016-10-29T04:09:02.710Z,1021.63
2016-10-29T04:10:02.878Z,1021.65
2016-10-29T04:11:02.712Z,1021.65
2016-10-29T04:12:02.822Z,1021.61
2016-10-29T04:13:02.850Z,1021.6
2016-10-29T04:14:02.799Z,1021.63
2016-10-29T04:15:03.055Z,1021.62
2016-10-29T04:16:03.263Z,1021.63
2016-10-29T04:17:03.016Z,1021.58
2016-10-29T04:18:02.963Z,1021.59
2016-10-29T04:19:02.900Z,1021.61
2016-10-29T04:20:02.927Z,1021.6
2016-10-29T04:21:03.188Z,1021.56
2016-10-29T04:22:02.864Z,1021.53
2016-10-29T04:23:03.230Z,1021.59
2016-10-29T04:24:03.279Z,1021.58
2016-10-29T04:25:02.977Z,1021.57
2016-10-29T04:26:03.095Z,1021.52
2016-10-29T04:27:03.061Z,1021.56
2016-10-29T04:28:03.140Z,1021.52
2016-10-29T04:29:02.935Z,1021.58
2016-10-29T04:30:03.006Z,1021.55
2016-10-29T04:31:03.141Z,1021.56
2016-10-29T04:32:03.220Z,1021.56
2016-10-29T04:33:03.398Z,1021.59
2016-10-29T04:34:03.681Z,1021.5
2016-10-29T04:35:03.658Z,1021.53
2016-10-29T04:36:03.447Z,1021.54
2016-10-29T04:37:03.221Z,1021.55
2016-10-29T04:38:03.304Z,1021.52
2016-10-29T04:39:03.360Z,1021.44
2016-10-29T04:40:03.535Z,1021.49
2016-10-29T04:41:03.334Z,1021.47
2016-10-29T04:42:03.352Z,1021.47
2016-10-29T04:43:03.529Z,1021.49
2016-10-29T04:44:03.898Z,1021.44
2016-10-29T04:45:03.244Z,1021.44
2016-10-29T04:46:03.349Z,1021.39
2016-10-29T04:47:03.365Z,1021.41
2016-10-29T04:48:03.426Z,1021.44
2016-10-29T04:49:03.319Z,1021.51
2016-10-29T04:50:03.663Z,1021.51
2016-10-29T04:51:03.251Z,1021.52
2016-10-29T04:52:03.362Z,1021.54
2016-10-29T04:53:03.307Z,1021.49
2016-10-29T04:54:03.376Z,1021.52
2016-10-29T04:55:03.448Z,1021.52
2016-10-29T04:56:03.779Z,1021.54
2016-10-29T04:57:03.566Z,1021.49
2016-10-29T04:58:03.649Z,1021.53
2016-10-29T04:59:03.586Z,1021.51
2016-10-29T05:00:03.731Z,1021.54
2016-10-29T05:01:04.286Z,1021.56
2016-10-29T05:02:04.022Z,1021.54
2016-10-29T05:03:03.907Z,1021.56
2016-10-29T05:04:04.406Z,1021.53
2016-10-29T05:05:04.116Z,1021.53
2016-10-29T05:06:03.638Z,1021.53
2016-10-29T05:07:03.716Z,1021.52
2016-10-29T05:08:03.641Z,1021.52
2016-10-29T05:09:04.448Z,1021.54
2016-10-29T05:10:03.816Z,1021.53
2016-10-29T05:11:04.024Z,1021.53
2016-10-29T05:12:04.042Z,1021.49
2016-10-29T05:13:03.997Z,1021.49
2016-10-29T05:14:04.163Z,1021.44
2016-10-29T05:15:03.982Z,1021.42
2016-10-29T05:16:03.928Z,1021.43
2016-10-29T05:17:03.895Z,1021.4
2016-10-29T05:18:03.942Z,1021.41
2016-10-29T05:19:04.107Z,1021.39
2016-10-29T05:20:03.903Z,1021.4
2016-10-29T05:21:03.956Z,1021.4
2016-10-29T05:22:04.034Z,1021.37
2016-10-29T05:23:03.934Z,1021.37
2016-10-29T05:24:04.071Z,1021.35
2016-10-29T05:25:04.106Z,1021.35
2016-10-29T05:26:04.291Z,1021.43
2016-10-29T05:27:04.022Z,1021.49
2016-10-29T05:28:03.982Z,1021.47
2016-10-29T05:29:03.995Z,1021.48
2016-10-29T05:30:04.200Z,1021.51
2016-10-29T05:31:04.272Z,1021.48
2016-10-29T05:32:04.675Z,1021.49
2016-10-29T05:33:04.578Z,1021.48
2016-10-29T05:34:04.639Z,1021.47
2016-10-29T05:35:04.037Z,1021.48
2016-10-29T05:36:04.597Z,1021.44
2016-10-29T05:37:04.183Z,1021.47
2016-10-29T05:38:04.250Z,1021.47
2016-10-29T05:39:04.523Z,1021.51
2016-10-29T05:40:04.308Z,1021.52
2016-10-29T05:41:04.469Z,1021.56
2016-10-29T05:42:04.298Z,1021.52
2016-10-29T05:43:04.261Z,1021.56
2016-10-29T05:44:04.240Z,1021.52
2016-10-29T05:45:04.209Z,1021.57
2016-10-29T05:46:04.313Z,1021.56
2016-10-29T05:47:04.215Z,1021.57
2016-10-29T05:48:04.288Z,1021.58
2016-10-29T05:49:04.741Z,1021.63
2016-10-29T05:50:04.535Z,1021.64
2016-10-29T05:51:04.485Z,1021.69
2016-10-29T05:52:04.258Z,1021.74
2016-10-29T05:53:04.954Z,1021.74
2016-10-29T05:54:04.953Z,1021.77
2016-10-29T05:55:04.530Z,1021.84
2016-10-29T05:56:04.580Z,1021.83
2016-10-29T05:57:04.587Z,1021.86
2016-10-29T05:58:04.592Z,1021.85
2016-10-29T05:59:04.691Z,1021.9
2016-10-29T06:00:05.020Z,1021.94
2016-10-29T06:01:04.713Z,1021.93
2016-10-29T06:02:04.623Z,1021.92
2016-10-29T06:03:04.647Z,1021.96
2016-10-29T06:04:05.010Z,1021.9
2016-10-29T06:05:04.612Z,1021.93
2016-10-29T06:06:04.841Z,1021.93
2016-10-29T06:07:04.545Z,1021.9
2016-10-29T06:08:04.988Z,1021.95
2016-10-29T06:09:04.808Z,1021.94
2016-10-29T06:10:04.923Z,1021.92
2016-10-29T06:11:04.800Z,1021.94
2016-10-29T06:12:04.677Z,1021.96
2016-10-29T06:13:04.599Z,1021.99
2016-10-29T06:14:04.858Z,1021.97
2016-10-29T06:15:04.779Z,1021.98
2016-10-29T06:16:04.740Z,1021.99
2016-10-29T06:17:04.738Z,1022.06
2016-10-29T06:18:05.455Z,1022.04
2016-10-29T06:19:04.802Z,1022.09
2016-10-29T06:20:04.709Z,1022.07
2016-10-29T06:21:05.185Z,1022.12
2016-10-29T06:22:04.922Z,1022.16
2016-10-29T06:23:04.928Z,1022.12
2016-10-29T06:24:05.444Z,1022.14
2016-10-29T06:25:04.963Z,1022.17
2016-10-29T06:26:04.834Z,1022.21
2016-10-29T06:27:04.785Z,1022.22
2016-10-29T06:28:05.385Z,1022.26
2016-10-29T06:29:04.913Z,1022.26
2016-10-29T06:30:05.116Z,1022.25
2016-10-29T06:31:05.343Z,1022.28
2016-10-29T06:32:05.336Z,1022.32
2016-10-29T06:33:05.028Z,1022.36
2016-10-29T06:34:05.280Z,1022.36
2016-10-29T06:35:05.088Z,1022.31
2016-10-29T06:36:05.265Z,1022.33
2016-10-29T06:37:05.106Z,1022.34
2016-10-29T06:38:05.307Z,1022.39
2016-10-29T06:39:05.265Z,1022.4
2016-10-29T06:40:05.078Z,1022.41
2016-10-29T06:41:05.184Z,1022.4
2016-10-29T06:42:05.128Z,1022.44
2016-10-29T06:43:05.316Z,1022.46
2016-10-29T06:44:05.235Z,1022.5
2016-10-29T06:45:05.196Z,1022.47
2016-10-29T06:46:05.520Z,1022.49
2016-10-29T06:47:05.226Z,1022.53
2016-10-29T06:48:05.148Z,1022.58
2016-10-29T06:49:05.102Z,1022.61
2016-10-29T06:50:05.259Z,1022.64
2016-10-29T06:51:05.259Z,1022.63
2016-10-29T06:52:05.634Z,1022.63
2016-10-29T06:53:05.417Z,1022.62
2016-10-29T06:54:05.406Z,1022.65
2016-10-29T06:55:05.340Z,1022.66
2016-10-29T06:56:05.349Z,1022.68
2016-10-29T06:57:05.442Z,1022.66
2016-10-29T06:58:05.458Z,1022.65
2016-10-29T06:59:05.331Z,1022.65
2016-10-29T07:00:05.449Z,1022.66
2016-10-29T07:01:05.518Z,1022.66
2016-10-29T07:02:05.559Z,1022.65
2016-10-29T07:03:05.447Z,1022.64
2016-10-29T07:04:05.969Z,1022.66
2016-10-29T07:05:06.039Z,1022.65
2016-10-29T07:06:05.571Z,1022.63
2016-10-29T07:07:05.459Z,1022.6
2016-10-29T07:08:05.831Z,1022.62
2016-10-29T07:09:05.844Z,1022.62
2016-10-29T07:10:05.938Z,1022.64
2016-10-29T07:11:05.533Z,1022.62
2016-10-29T07:12:05.497Z,1022.65
2016-10-29T07:13:05.523Z,1022.65
2016-10-29T07:14:05.585Z,1022.69
2016-10-29T07:15:05.681Z,1022.69
2016-10-29T07:16:05.740Z,1022.69
2016-10-29T07:17:05.791Z,1022.73
2016-10-29T07:18:05.534Z,1022.74
2016-10-29T07:19:05.853Z,1022.74
2016-10-29T07:20:05.968Z,1022.74
2016-10-29T07:21:05.841Z,1022.76
2016-10-29T07:22:05.898Z,1022.77
2016-10-29T07:23:05.805Z,1022.78
2016-10-29T07:24:05.994Z,1022.81
2016-10-29T07:25:05.772Z,1022.79
2016-10-29T07:26:05.763Z,1022.84
2016-10-29T07:27:05.756Z,1022.85
2016-10-29T07:28:05.783Z,1022.86
2016-10-29T07:29:05.916Z,1022.85
2016-10-29T07:30:05.813Z,1022.88
2016-10-29T07:31:06.183Z,1022.87
2016-10-29T07:32:05.944Z,1022.88
2016-10-29T07:33:05.857Z,1022.89
2016-10-29T07:34:05.912Z,1022.86
2016-10-29T07:35:06.169Z,1022.89
2016-10-29T07:36:05.929Z,1022.86
2016-10-29T07:37:06.140Z,1022.9
2016-10-29T07:38:06.097Z,1022.92
2016-10-29T07:39:06.223Z,1022.9
2016-10-29T07:40:05.972Z,1022.92
2016-10-29T07:41:06.267Z,1023
2016-10-29T07:42:06.272Z,1023.02
2016-10-29T07:43:06.290Z,1023.03
2016-10-29T07:44:06.267Z,1023.01
2016-10-29T07:45:06.239Z,1023.01
2016-10-29T07:46:06.220Z,1023.04
2016-10-29T07:47:06.094Z,1023
2016-10-29T07:48:06.109Z,1023.02
2016-10-29T07:49:06.231Z,1023.05
2016-10-29T07:50:06.512Z,1023.03
2016-10-29T07:51:06.572Z,1023.02
2016-10-29T07:52:06.475Z,1023.05
2016-10-29T07:53:06.542Z,1023.01
2016-10-29T07:54:06.433Z,1023.04
2016-10-29T07:55:06.326Z,1023.05
2016-10-29T07:56:06.535Z,1023.08
2016-10-29T07:57:06.436Z,1023.13
2016-10-29T07:58:06.323Z,1023.16
2016-10-29T07:59:06.586Z,1023.18
2016-10-29T08:00:06.411Z,1023.19
2016-10-29T08:01:06.887Z,1023.23
2016-10-29T08:02:06.680Z,1023.22
2016-10-29T08:03:06.449Z,1023.18
2016-10-29T08:04:06.589Z,1023.19
2016-10-29T08:05:06.810Z,1023.16
2016-10-29T08:06:06.520Z,1023.18
2016-10-29T08:07:06.431Z,1023.18
2016-10-29T08:08:06.608Z,1023.18
2016-10-29T08:09:06.664Z,1023.18
2016-10-29T08:10:06.676Z,1023.08
2016-10-29T08:11:06.723Z,1023.11
2016-10-29T08:12:06.655Z,1023.13
2016-10-29T08:13:06.646Z,1023.13
2016-10-29T08:14:06.681Z,1023.13
2016-10-29T08:15:06.639Z,1023.18
2016-10-29T08:16:06.671Z,1023.11
2016-10-29T08:17:06.865Z,1023.16
2016-10-29T08:18:06.863Z,1023.14
2016-10-29T08:19:06.921Z,1023.15
2016-10-29T08:20:07.063Z,1023.13
2016-10-29T08:21:06.940Z,1023.11
2016-10-29T08:22:06.693Z,1023.08
2016-10-29T08:23:07.060Z,1023.06
2016-10-29T08:24:06.822Z,1023.1
2016-10-29T08:25:06.790Z,1023.1
2016-10-29T08:26:06.996Z,1023.14
2016-10-29T08:27:06.991Z,1023.1
2016-10-29T08:28:07.172Z,1023.11
2016-10-29T08:29:06.981Z,1023.13
2016-10-29T08:30:07.306Z,1023.07
2016-10-29T08:31:07.159Z,1023.04
2016-10-29T08:32:07.247Z,1022.97
2016-10-29T08:33:07.126Z,1022.99
2016-10-29T08:34:07.019Z,1023.02
2016-10-29T08:35:07.314Z,1023.08
2016-10-29T08:36:07.113Z,1023.13
2016-10-29T08:37:07.055Z,1023.14
2016-10-29T08:38:07.164Z,1023.17
2016-10-29T08:39:07.058Z,1023.15
2016-10-29T08:40:07.027Z,1023.16
2016-10-29T08:41:07.480Z,1023.12
2016-10-29T08:42:07.523Z,1023.09
2016-10-29T08:43:07.189Z,1023.1
2016-10-29T08:44:07.142Z,1023.1
2016-10-29T08:45:07.169Z,1023.14
2016-10-29T08:46:07.161Z,1023.16
2016-10-29T08:47:07.522Z,1023.22
2016-10-29T08:48:07.167Z,1023.23
2016-10-29T08:49:07.336Z,1023.23
2016-10-29T08:50:07.429Z,1023.28
2016-10-29T08:51:07.262Z,1023.23
2016-10-29T08:52:07.259Z,1023.19
2016-10-29T08:53:07.827Z,1023.2
2016-10-29T08:54:07.360Z,1023.17
2016-10-29T08:55:07.905Z,1023.16
2016-10-29T08:56:07.362Z,1023.16
2016-10-29T08:57:07.425Z,1023.15
2016-10-29T08:58:07.751Z,1023.14
2016-10-29T08:59:07.356Z,1023.17
2016-10-29T09:00:07.359Z,1023.19
2016-10-29T09:01:07.412Z,1023.2
2016-10-29T09:02:07.983Z,1023.21
2016-10-29T09:03:07.485Z,1023.2
2016-10-29T09:04:07.725Z,1023.2
2016-10-29T09:05:07.536Z,1023.2
2016-10-29T09:06:07.802Z,1023.19
2016-10-29T09:07:08.166Z,1023.18
2016-10-29T09:08:07.546Z,1023.21
2016-10-29T09:09:07.760Z,1023.2
2016-10-29T09:10:07.600Z,1023.13
2016-10-29T09:11:07.820Z,1023.08
2016-10-29T09:12:07.737Z,1023.09
2016-10-29T09:13:07.846Z,1023.16
2016-10-29T09:14:07.806Z,1023.2
2016-10-29T09:15:07.894Z,1023.16
2016-10-29T09:16:07.872Z,1023.12
2016-10-29T09:17:08.166Z,1023.1
2016-10-29T09:18:08.343Z,1023.11
2016-10-29T09:19:07.930Z,1023.12
2016-10-29T09:20:08.111Z,1023.12
2016-10-29T09:21:07.904Z,1023.09
2016-10-29T09:22:07.822Z,1023.11
2016-10-29T09:23:07.941Z,1023.09
2016-10-29T09:24:07.985Z,1023.08
2016-10-29T09:25:07.946Z,1023.05
2016-10-29T09:26:08.490Z,1023.02
2016-10-29T09:27:08.122Z,1023.06
2016-10-29T09:28:08.419Z,1023.14
2016-10-29T09:29:08.041Z,1023.12
2016-10-29T09:30:08.258Z,1023.15
2016-10-29T09:31:08.115Z,1023.13
2016-10-29T09:32:08.685Z,1023.1
2016-10-29T09:33:08.073Z,1023.06
2016-10-29T09:34:08.219Z,1023.09
2016-10-29T09:35:08.502Z,1023.07
2016-10-29T09:36:08.132Z,1023.07
2016-10-29T09:37:08.137Z,1023.07
2016-10-29T09:38:08.346Z,1023.1
2016-10-29T09:39:08.377Z,1023.1
2016-10-29T09:40:08.135Z,1023.11
2016-10-29T09:41:08.294Z,1023.09
2016-10-29T09:42:08.376Z,1023.07
2016-10-29T09:43:08.507Z,1023.09
2016-10-29T09:44:08.576Z,1022.99
2016-10-29T09:45:08.462Z,1022.98
2016-10-29T09:46:08.316Z,1022.98
2016-10-29T09:47:08.473Z,1022.95
2016-10-29T09:48:08.351Z,1022.9
2016-10-29T09:49:08.449Z,1022.84
2016-10-29T09:50:08.492Z,1022.92
2016-10-29T09:51:08.666Z,1022.96
2016-10-29T09:52:08.471Z,1022.86
2016-10-29T09:53:08.437Z,1022.83
2016-10-29T09:54:08.679Z,1022.8
2016-10-29T09:55:08.840Z,1022.81
2016-10-29T09:56:08.448Z,1022.84
2016-10-29T09:57:08.572Z,1022.9
2016-10-29T09:58:08.509Z,1022.95
2016-10-29T09:59:08.628Z,1022.92
2016-10-29T10:00:08.559Z,1022.98
2016-10-29T10:01:08.618Z,1022.98
2016-10-29T10:02:08.761Z,1022.97
2016-10-29T10:03:09.248Z,1022.99
2016-10-29T10:04:08.780Z,1023.05
2016-10-29T10:05:08.756Z,1022.98
2016-10-29T10:06:08.726Z,1022.99
2016-10-29T10:07:08.776Z,1022.92
2016-10-29T10:08:08.861Z,1022.94
2016-10-29T10:09:08.937Z,1022.97
2016-10-29T10:10:08.889Z,1023.04
2016-10-29T10:11:09.360Z,1023.09
2016-10-29T10:12:09.939Z,1023.13
2016-10-29T10:13:09.166Z,1023.17
2016-10-29T10:14:09.276Z,1023.16
2016-10-29T10:15:09.088Z,1023.16
2016-10-29T10:16:09.143Z,1023.12
2016-10-29T10:17:09.105Z,1023.09
2016-10-29T10:18:09.265Z,1023.11
2016-10-29T10:19:09.347Z,1023.08
2016-10-29T10:20:09.335Z,1023.07
2016-10-29T10:21:09.235Z,1023.09
2016-10-29T10:22:09.271Z,1023.09
2016-10-29T10:23:10.087Z,1022.97
2016-10-29T10:24:09.136Z,1022.92
2016-10-29T10:25:09.474Z,1022.95
2016-10-29T10:26:09.191Z,1022.97
2016-10-29T10:27:09.123Z,1022.97
2016-10-29T10:28:09.268Z,1022.95
2016-10-29T10:29:09.659Z,1022.93
2016-10-29T10:30:09.398Z,1022.87
2016-10-29T10:31:09.633Z,1022.85
2016-10-29T10:32:09.896Z,1022.85
2016-10-29T10:33:09.374Z,1022.87
2016-10-29T10:34:09.844Z,1022.91
2016-10-29T10:35:09.368Z,1022.87
2016-10-29T10:36:09.677Z,1022.87
2016-10-29T10:37:09.963Z,1022.81
2016-10-29T10:38:09.915Z,1022.84
2016-10-29T10:39:09.665Z,1022.87
2016-10-29T10:40:09.438Z,1022.85
2016-10-29T10:41:09.724Z,1022.85
2016-10-29T10:42:09.868Z,1022.78
2016-10-29T10:43:10.139Z,1022.75
2016-10-29T10:44:09.919Z,1022.81
2016-10-29T10:45:09.719Z,1022.77
2016-10-29T10:46:09.807Z,1022.73
2016-10-29T10:47:09.903Z,1022.73
2016-10-29T10:48:10.253Z,1022.75
2016-10-29T10:49:10.185Z,1022.78
2016-10-29T10:50:09.832Z,1022.81
2016-10-29T10:51:10.419Z,1022.85
2016-10-29T10:52:10.047Z,1022.82
2016-10-29T10:53:10.256Z,1022.87
2016-10-29T10:54:10.243Z,1022.91
2016-10-29T10:55:10.338Z,1022.95
2016-10-29T10:56:09.898Z,1023.02
2016-10-29T10:57:09.947Z,1022.98
2016-10-29T10:58:10.012Z,1022.97
2016-10-29T10:59:10.127Z,1022.88
2016-10-29T11:00:10.358Z,1022.9
2016-10-29T11:01:10.080Z,1022.91
2016-10-29T11:02:10.031Z,1022.92
2016-10-29T11:03:10.100Z,1022.95
2016-10-29T11:04:10.317Z,1022.92
2016-10-29T11:05:10.144Z,1022.86
2016-10-29T11:06:10.166Z,1022.91
2016-10-29T11:07:10.070Z,1022.91
2016-10-29T11:08:10.663Z,1022.82
2016-10-29T11:09:10.615Z,1022.78
2016-10-29T11:10:10.395Z,1022.73
2016-10-29T11:11:10.327Z,1022.69
2016-10-29T11:12:10.230Z,1022.64
2016-10-29T11:13:10.575Z,1022.64
2016-10-29T11:14:10.213Z,1022.69
2016-10-29T11:15:10.372Z,1022.64
2016-10-29T11:16:10.539Z,1022.65
2016-10-29T11:17:10.520Z,1022.6
2016-10-29T11:18:10.460Z,1022.48
2016-10-29T11:19:10.562Z,1022.38
2016-10-29T11:20:10.577Z,1022.4
2016-10-29T11:21:10.486Z,1022.42
2016-10-29T11:22:10.499Z,1022.38
2016-10-29T11:23:10.606Z,1022.32
2016-10-29T11:24:10.724Z,1022.35
2016-10-29T11:25:10.957Z,1022.38
2016-10-29T11:26:10.519Z,1022.52
2016-10-29T11:27:10.582Z,1022.49
2016-10-29T11:28:10.769Z,1022.42
2016-10-29T11:29:10.679Z,1022.45
2016-10-29T11:30:10.787Z,1022.4
2016-10-29T11:31:10.849Z,1022.36
2016-10-29T11:32:10.619Z,1022.31
2016-10-29T11:33:10.752Z,1022.35
2016-10-29T11:34:10.722Z,1022.35
2016-10-29T11:35:10.868Z,1022.29
2016-10-29T11:36:10.785Z,1022.27
2016-10-29T11:37:10.728Z,1022.26
2016-10-29T11:38:11.098Z,1022.29
2016-10-29T11:39:10.830Z,1022.32
2016-10-29T11:40:10.834Z,1022.41
2016-10-29T11:41:10.927Z,1022.39
2016-10-29T11:42:10.964Z,1022.39
2016-10-29T11:43:11.503Z,1022.37
2016-10-29T11:44:11.260Z,1022.26
2016-10-29T11:45:11.443Z,1022.3
2016-10-29T11:46:10.894Z,1022.27
2016-10-29T11:47:11.032Z,1022.29
2016-10-29T11:48:11.211Z,1022.33
2016-10-29T11:49:10.967Z,1022.23
2016-10-29T11:50:11.123Z,1022.23
2016-10-29T11:51:11.326Z,1022.22
2016-10-29T11:52:11.532Z,1022.18
2016-10-29T11:53:11.142Z,1022.21
2016-10-29T11:54:11.329Z,1022.21
2016-10-29T11:55:11.223Z,1022.13
2016-10-29T11:56:11.332Z,1022.19
2016-10-29T11:57:11.249Z,1022.16
2016-10-29T11:58:11.275Z,1022.11
2016-10-29T11:59:11.266Z,1022.12
2016-10-29T12:00:11.373Z,1022.21
2016-10-29T12:01:11.283Z,1022.16
2016-10-29T12:02:11.581Z,1022.13
2016-10-29T12:03:11.861Z,1022.13
2016-10-29T12:04:11.923Z,1022.03
2016-10-29T12:05:12.036Z,1022.02
2016-10-29T12:06:12.167Z,1021.99
2016-10-29T12:07:11.541Z,1022.02
2016-10-29T12:08:11.869Z,1022.05
2016-10-29T12:09:11.972Z,1022.09